Time;durP1;ratioP1;P1;durP2;ratioP2;P2;SDS_P1;SDS_P2;PMS_P1;PMS_P2;Temp;Humidity;BMP_temperature;BMP_pressure;BME280_temperature;BME280_humidity;BME280_pressure;Samples;Min_cycle;Max_cycle;Signal;HPM_P1;HPM_P2
2023/09/20 00:01:47;;;;;;;1.57;1.40;;;14.50;98.50;;;;;;5083836;28;20703;-78
2023/09/20 00:04:15;;;;;;;1.40;1.30;;;14.50;98.60;;;;;;5084415;28;20621;-79
2023/09/20 00:06:42;;;;;;;1.40;1.07;;;14.50;99.00;;;;;;5082379;28;21603;-78
2023/09/20 00:09:09;;;;;;;2.10;1.50;;;14.50;99.10;;;;;;5082911;28;20665;-79
2023/09/20 00:11:36;;;;;;;1.83;1.33;;;14.50;99.20;;;;;;5083283;28;20633;-79
2023/09/20 00:14:03;;;;;;;1.57;1.47;;;14.60;99.20;;;;;;5084643;28;20631;-78
2023/09/20 00:16:30;;;;;;;4.77;1.83;;;14.50;99.30;;;;;;5084803;28;20619;-79
2023/09/20 00:18:57;;;;;;;2.30;1.73;;;14.50;99.20;;;;;;5083480;28;20620;-78
2023/09/20 00:21:25;;;;;;;1.60;1.10;;;14.60;99.40;;;;;;5083420;28;21136;-78
2023/09/20 00:23:52;;;;;;;1.57;0.93;;;14.50;99.50;;;;;;5082505;28;20616;-78
2023/09/20 00:26:19;;;;;;;1.60;1.50;;;14.50;99.30;;;;;;5083984;28;20630;-78
2023/09/20 00:28:48;;;;;;;1.93;1.70;;;14.50;99.30;;;;;;5083194;28;20727;-78
2023/09/20 00:31:15;;;;;;;1.80;1.07;;;14.50;99.40;;;;;;5083351;28;20737;-78
2023/09/20 00:33:42;;;;;;;1.23;1.13;;;14.40;99.50;;;;;;5082830;28;20640;-79
2023/09/20 00:36:08;;;;;;;1.23;1.00;;;14.40;99.50;;;;;;5082160;28;20642;-78
2023/09/20 00:38:36;;;;;;;3.03;1.43;;;14.40;99.90;;;;;;5083802;28;20625;-79
2023/09/20 00:41:06;;;;;;;1.60;1.30;;;14.40;99.50;;;;;;5083699;28;21211;-78
2023/09/20 00:43:33;;;;;;;1.63;1.17;;;14.50;99.80;;;;;;5082951;28;20641;-79
2023/09/20 00:46:00;;;;;;;1.23;1.00;;;14.40;99.40;;;;;;5083050;28;20625;-78
2023/09/20 00:48:29;;;;;;;1.53;1.37;;;14.50;99.80;;;;;;5082347;28;20724;-78
2023/09/20 00:50:56;;;;;;;1.27;1.17;;;14.50;99.60;;;;;;5083731;28;20654;-78
2023/09/20 00:53:23;;;;;;;1.57;1.43;;;14.40;99.80;;;;;;5081551;28;20995;-78
2023/09/20 00:55:51;;;;;;;1.73;1.23;;;14.40;99.60;;;;;;5081599;28;20989;-78
2023/09/20 00:58:20;;;;;;;1.23;1.13;;;14.40;99.40;;;;;;5081614;28;21250;-78
2023/09/20 01:00:51;;;;;;;1.63;1.53;;;14.30;99.40;;;;;;5082929;28;20634;-78
2023/09/20 01:03:19;;;;;;;1.03;0.90;;;14.30;99.50;;;;;;5082727;28;20631;-78
2023/09/20 01:05:47;;;;;;;1.70;1.50;;;14.30;99.60;;;;;;5082989;28;20621;-78
2023/09/20 01:08:17;;;;;;;1.43;1.20;;;14.30;99.90;;;;;;5081588;28;20652;-78
2023/09/20 01:10:45;;;;;;;1.77;1.67;;;14.20;99.90;;;;;;5082815;28;20644;-78
2023/09/20 01:13:15;;;;;;;2.20;1.20;;;14.20;99.90;;;;;;5082535;28;21513;-78
2023/09/20 01:15:44;;;;;;;3.27;1.70;;;14.20;99.90;;;;;;5083004;28;20620;-78
2023/09/20 01:18:12;;;;;;;1.90;1.80;;;14.20;99.90;;;;;;5079913;28;21206;-78
2023/09/20 01:20:40;;;;;;;3.00;2.27;;;14.20;99.90;;;;;;5082841;28;20624;-78
2023/09/20 01:23:10;;;;;;;1.10;1.00;;;14.20;99.90;;;;;;5083517;28;20625;-78
2023/09/20 01:25:39;;;;;;;1.23;1.13;;;14.30;99.90;;;;;;5082284;28;20632;-78
2023/09/20 01:28:10;;;;;;;1.60;1.23;;;14.30;99.90;;;;;;5080501;28;21303;-79
2023/09/20 01:30:41;;;;;;;1.30;1.20;;;14.20;99.90;;;;;;5082892;28;20622;-78
2023/09/20 01:33:09;;;;;;;1.27;1.17;;;14.20;99.90;;;;;;5080762;28;20632;-78
2023/09/20 01:35:38;;;;;;;1.50;1.30;;;14.20;99.90;;;;;;5082567;28;20639;-78
2023/09/20 01:38:07;;;;;;;1.83;1.43;;;14.20;99.90;;;;;;5082083;28;20628;-78
2023/09/20 01:40:36;;;;;;;1.30;1.20;;;14.20;99.90;;;;;;5081316;28;21244;-78
2023/09/20 01:43:06;;;;;;;1.27;1.17;;;14.10;99.90;;;;;;5081304;28;20658;-78
2023/09/20 01:45:34;;;;;;;3.07;1.37;;;14.10;99.90;;;;;;5080936;28;20751;-78
2023/09/20 01:48:05;;;;;;;1.83;1.43;;;14.00;99.90;;;;;;5082907;28;20647;-78
2023/09/20 01:50:32;;;;;;;1.37;1.27;;;14.00;99.90;;;;;;5082116;28;21263;-78
2023/09/20 01:53:00;;;;;;;1.20;1.10;;;13.90;99.90;;;;;;5080766;28;21196;-78
2023/09/20 01:55:31;;;;;;;1.60;1.50;;;13.90;99.90;;;;;;5081296;28;20637;-78
2023/09/20 01:58:00;;;;;;;1.10;1.10;;;13.90;99.90;;;;;;5082572;28;21314;-78
2023/09/20 02:00:32;;;;;;;1.20;1.10;;;13.80;99.90;;;;;;5082908;28;21259;-77
2023/09/20 02:03:06;;;;;;;2.37;1.90;;;13.70;99.90;;;;;;5080994;28;20613;-78
2023/09/20 02:05:33;;;;;;;1.43;1.27;;;13.70;99.90;;;;;;5082071;28;20620;-79
2023/09/20 02:08:00;;;;;;;1.47;1.37;;;13.70;99.90;;;;;;5081702;28;20636;-78
2023/09/20 02:10:29;;;;;;;1.90;1.10;;;13.80;99.90;;;;;;5081997;28;20782;-78
2023/09/20 02:12:59;;;;;;;1.63;1.50;;;13.80;99.90;;;;;;5081224;28;20640;-78
2023/09/20 02:15:27;;;;;;;1.90;1.67;;;13.70;99.90;;;;;;5081235;28;20715;-78
2023/09/20 02:17:54;;;;;;;0.80;0.80;;;13.80;99.90;;;;;;5080977;28;21831;-78
2023/09/20 02:20:23;;;;;;;1.60;1.37;;;13.80;99.90;;;;;;5082787;28;20630;-78
2023/09/20 02:22:53;;;;;;;3.00;1.53;;;13.70;99.90;;;;;;5082252;28;20747;-79
2023/09/20 02:25:21;;;;;;;1.13;1.13;;;13.70;99.90;;;;;;5081663;28;20625;-78
2023/09/20 02:27:49;;;;;;;1.90;1.27;;;13.70;99.90;;;;;;5080871;28;20728;-79
2023/09/20 02:30:19;;;;;;;1.07;0.97;;;13.70;99.90;;;;;;5081384;28;20660;-78
2023/09/20 02:32:50;;;;;;;1.30;1.20;;;13.70;99.90;;;;;;5080592;28;20624;-78
2023/09/20 02:35:17;;;;;;;1.40;1.30;;;13.70;99.90;;;;;;5082380;28;20621;-78
2023/09/20 02:37:46;;;;;;;1.60;1.47;;;13.80;99.90;;;;;;5082028;28;20631;-78
2023/09/20 02:40:14;;;;;;;1.20;1.10;;;13.80;99.90;;;;;;5080477;28;20726;-77
2023/09/20 02:42:43;;;;;;;2.13;1.40;;;13.80;99.90;;;;;;5080338;28;20617;-78
2023/09/20 02:45:12;;;;;;;3.70;1.53;;;13.80;99.90;;;;;;5080377;28;20679;-78
2023/09/20 02:47:42;;;;;;;1.30;1.20;;;13.90;99.90;;;;;;5082052;28;20753;-78
2023/09/20 02:50:12;;;;;;;2.33;1.77;;;13.90;99.90;;;;;;5081014;28;20656;-78
2023/09/20 02:52:40;;;;;;;1.47;1.37;;;13.90;99.90;;;;;;5081290;28;20748;-78
2023/09/20 02:55:08;;;;;;;2.30;1.40;;;13.90;99.90;;;;;;5083554;28;20678;-78
2023/09/20 02:57:37;;;;;;;1.67;1.57;;;13.90;99.90;;;;;;5085495;28;20629;-78
2023/09/20 03:00:15;;;;;;;1.97;1.20;;;13.90;99.90;;;;;;5085190;28;20615;-78
2023/09/20 03:02:45;;;;;;;2.30;1.80;;;14.00;99.90;;;;;;5084208;28;20620;-78
2023/09/20 03:05:14;;;;;;;1.00;1.00;;;13.90;99.90;;;;;;5085046;28;20629;-77
2023/09/20 03:07:43;;;;;;;1.43;1.30;;;14.00;99.90;;;;;;5085159;28;20685;-78
2023/09/20 03:10:12;;;;;;;1.30;1.20;;;14.10;99.90;;;;;;5084881;28;20666;-78
2023/09/20 03:12:41;;;;;;;1.50;1.10;;;14.00;99.90;;;;;;5083184;28;20674;-78
2023/09/20 03:15:10;;;;;;;2.30;1.30;;;14.10;99.90;;;;;;5083781;28;20639;-78
2023/09/20 03:17:38;;;;;;;1.93;1.60;;;14.10;99.90;;;;;;5084669;28;20984;-78
2023/09/20 03:20:11;;;;;;;6.87;1.63;;;14.00;99.90;;;;;;5086148;28;20626;-77
2023/09/20 03:22:38;;;;;;;2.10;1.60;;;14.00;99.90;;;;;;5085896;28;21209;-77
2023/09/20 03:25:05;;;;;;;2.03;1.83;;;14.00;99.90;;;;;;5083767;28;21243;-77
2023/09/20 03:27:32;;;;;;;1.20;1.10;;;13.90;99.90;;;;;;5083532;28;20677;-78
2023/09/20 03:30:00;;;;;;;1.50;1.40;;;13.90;99.90;;;;;;5085424;28;21021;-77
2023/09/20 03:32:26;;;;;;;2.10;1.47;;;13.80;99.90;;;;;;5085103;28;20631;-78
2023/09/20 03:34:55;;;;;;;1.37;1.30;;;13.80;99.90;;;;;;5084418;28;21040;-78
2023/09/20 03:37:23;;;;;;;3.03;1.83;;;13.80;99.90;;;;;;5083279;28;21071;-78
2023/09/20 03:39:51;;;;;;;1.77;1.50;;;13.80;99.90;;;;;;5081119;28;20641;-77
2023/09/20 03:42:17;;;;;;;1.30;1.20;;;13.80;99.90;;;;;;5084477;28;20636;-78
2023/09/20 03:44:45;;;;;;;1.60;1.50;;;13.70;99.90;;;;;;5085040;28;20635;-78
2023/09/20 03:47:12;;;;;;;2.57;1.67;;;13.70;99.90;;;;;;5083291;28;20712;-78
2023/09/20 03:49:39;;;;;;;2.77;1.57;;;13.70;99.90;;;;;;5082777;28;20673;-77
2023/09/20 03:52:06;;;;;;;2.57;2.03;;;13.70;99.90;;;;;;5081773;28;21019;-77
2023/09/20 03:54:34;;;;;;;1.63;1.53;;;13.70;99.90;;;;;;5082523;28;21216;-78
2023/09/20 03:57:01;;;;;;;2.00;1.80;;;13.70;99.90;;;;;;5083135;28;20626;-77
2023/09/20 03:59:32;;;;;;;1.60;1.50;;;13.70;99.90;;;;;;5082173;28;20627;-78
2023/09/20 04:02:00;;;;;;;2.30;1.53;;;13.70;99.90;;;;;;5083856;28;20688;-78
2023/09/20 04:04:26;;;;;;;3.47;1.60;;;13.80;99.90;;;;;;5083527;28;21201;-77
2023/09/20 04:06:53;;;;;;;2.20;1.90;;;13.80;99.90;;;;;;5083610;28;20643;-78
2023/09/20 04:09:21;;;;;;;2.10;1.90;;;13.80;99.90;;;;;;5077547;28;20659;-77
2023/09/20 04:11:49;;;;;;;2.00;1.80;;;13.80;99.90;;;;;;5079164;28;20747;-78
2023/09/20 04:14:15;;;;;;;1.63;1.47;;;13.70;99.90;;;;;;5080620;28;20617;-78
2023/09/20 04:16:42;;;;;;;1.53;1.37;;;13.70;99.90;;;;;;5078520;28;20702;-77
2023/09/20 04:19:09;;;;;;;1.43;1.33;;;13.70;99.90;;;;;;5073170;28;21101;-77
2023/09/20 04:21:37;;;;;;;1.43;1.30;;;13.60;99.90;;;;;;5079509;28;20728;-78
2023/09/20 04:24:05;;;;;;;1.30;1.20;;;13.70;99.90;;;;;;5081703;28;20638;-77
2023/09/20 04:26:32;;;;;;;2.10;1.87;;;13.60;99.90;;;;;;5081314;28;20640;-77
2023/09/20 04:29:00;;;;;;;1.50;1.30;;;13.70;99.90;;;;;;5082309;28;20609;-77
2023/09/20 04:31:32;;;;;;;3.50;1.27;;;13.60;99.90;;;;;;5080519;28;20643;-78
2023/09/20 04:33:59;;;;;;;2.13;1.47;;;13.50;99.90;;;;;;5077343;28;20628;-77
2023/09/20 04:36:27;;;;;;;3.20;1.60;;;13.60;99.90;;;;;;5081474;28;20644;-78
2023/09/20 04:38:54;;;;;;;1.60;1.50;;;13.60;99.90;;;;;;5078448;28;20629;-77
2023/09/20 04:41:21;;;;;;;1.23;1.13;;;13.40;99.90;;;;;;5081957;28;20999;-77
2023/09/20 04:43:48;;;;;;;1.63;1.27;;;13.40;99.90;;;;;;5080420;28;20634;-77
2023/09/20 04:46:16;;;;;;;1.93;1.73;;;13.20;99.90;;;;;;5078811;28;21470;-78
2023/09/20 04:48:44;;;;;;;2.13;1.50;;;13.30;99.90;;;;;;5079643;28;20675;-77
2023/09/20 04:51:11;;;;;;;1.33;1.23;;;13.20;99.90;;;;;;5082461;28;20657;-77
2023/09/20 04:53:39;;;;;;;1.23;1.13;;;13.10;99.90;;;;;;5081683;28;20625;-77
2023/09/20 04:56:06;;;;;;;3.03;2.07;;;13.20;99.90;;;;;;5082027;28;21199;-78
2023/09/20 04:58:33;;;;;;;2.73;1.90;;;13.20;99.90;;;;;;5081225;28;20726;-78
2023/09/20 05:01:00;;;;;;;1.40;1.30;;;13.10;99.90;;;;;;5083456;28;20623;-77
2023/09/20 05:03:29;;;;;;;1.17;1.17;;;13.20;99.90;;;;;;5083325;28;20625;-77
2023/09/20 05:05:55;;;;;;;1.47;1.37;;;13.20;99.90;;;;;;5083478;28;21259;-77
2023/09/20 05:08:22;;;;;;;2.47;1.50;;;13.10;99.90;;;;;;5082915;28;20624;-78
2023/09/20 05:10:49;;;;;;;1.50;1.40;;;13.10;99.90;;;;;;5082347;28;21169;-77
2023/09/20 05:13:17;;;;;;;3.33;1.57;;;13.00;99.90;;;;;;5080769;28;21760;-76
2023/09/20 05:15:44;;;;;;;3.17;1.97;;;13.10;99.90;;;;;;5081341;28;20954;-76
2023/09/20 05:18:11;;;;;;;3.47;1.80;;;13.10;99.90;;;;;;5081859;28;20856;-76
2023/09/20 05:20:40;;;;;;;2.00;1.80;;;13.10;99.90;;;;;;5082598;28;20629;-76
2023/09/20 05:23:08;;;;;;;3.80;1.63;;;13.10;99.90;;;;;;5080238;28;20632;-76
2023/09/20 05:25:35;;;;;;;1.70;1.60;;;13.10;99.90;;;;;;5082961;28;21276;-76
2023/09/20 05:28:04;;;;;;;3.70;3.20;;;13.20;99.90;;;;;;5083556;28;20639;-76
2023/09/20 05:30:32;;;;;;;1.27;1.17;;;13.20;99.90;;;;;;5081894;28;20706;-75
2023/09/20 05:32:59;;;;;;;2.63;1.60;;;13.20;99.90;;;;;;5081390;28;21297;-79
2023/09/20 05:35:27;;;;;;;2.63;1.87;;;13.10;99.90;;;;;;5081395;28;21238;-76
2023/09/20 05:37:56;;;;;;;2.37;1.83;;;13.10;99.90;;;;;;5080840;28;20629;-76
2023/09/20 05:40:27;;;;;;;4.10;1.73;;;13.10;99.90;;;;;;5076009;28;20780;-75
2023/09/20 05:42:54;;;;;;;2.23;2.03;;;13.20;99.90;;;;;;5071300;28;20647;-74
2023/09/20 05:45:23;;;;;;;1.37;1.13;;;13.30;99.90;;;;;;5078535;28;21243;-77
2023/09/20 05:47:50;;;;;;;3.20;1.77;;;13.40;99.90;;;;;;5081927;28;20695;-77
2023/09/20 05:50:17;;;;;;;2.33;1.73;;;13.60;99.90;;;;;;5082486;28;21123;-78
2023/09/20 05:52:45;;;;;;;2.27;2.00;;;13.70;99.90;;;;;;5081590;28;20701;-79
2023/09/20 05:55:14;;;;;;;1.83;1.73;;;13.80;99.90;;;;;;5080831;28;20719;-82
2023/09/20 05:57:42;;;;;;;1.30;1.20;;;13.90;99.90;;;;;;5081590;28;20719;-82
2023/09/20 06:00:16;;;;;;;2.17;1.97;;;14.00;99.90;;;;;;5081340;28;20671;-79
2023/09/20 06:02:43;;;;;;;3.50;1.77;;;14.10;99.90;;;;;;5081016;28;20632;-89
2023/09/20 06:05:12;;;;;;;1.77;1.67;;;14.20;99.90;;;;;;5079881;28;20716;-88
2023/09/20 06:07:40;;;;;;;3.60;2.13;;;14.20;99.90;;;;;;5080503;28;20627;-85
2023/09/20 06:10:11;;;;;;;1.63;1.50;;;14.30;99.90;;;;;;5079855;28;20652;-84
2023/09/20 06:12:40;;;;;;;2.20;1.50;;;14.40;99.90;;;;;;5081928;28;20652;-83
2023/09/20 06:15:10;;;;;;;1.97;1.80;;;14.50;99.90;;;;;;5080841;28;20766;-81
2023/09/20 06:17:37;;;;;;;2.17;2.00;;;14.60;99.90;;;;;;5080840;28;20632;-84
2023/09/20 06:20:08;;;;;;;1.67;1.57;;;14.70;99.90;;;;;;5081761;28;20657;-80
2023/09/20 06:22:36;;;;;;;1.53;1.43;;;14.70;99.90;;;;;;5082094;28;20734;-80
2023/09/20 06:25:05;;;;;;;1.17;1.07;;;14.90;99.90;;;;;;5097774;28;21014;-79
2023/09/20 06:27:33;;;;;;;1.40;1.30;;;14.90;99.90;;;;;;5082277;28;21177;-79
2023/09/20 06:30:05;;;;;;;2.00;1.50;;;15.00;99.90;;;;;;5084694;28;20755;-79
2023/09/20 06:32:34;;;;;;;2.30;1.73;;;15.10;99.90;;;;;;5088455;28;20616;-79
2023/09/20 06:35:03;;;;;;;1.40;1.20;;;15.20;99.90;;;;;;5087795;28;21216;-79
2023/09/20 06:37:32;;;;;;;1.60;1.50;;;15.30;99.60;;;;;;5088462;28;20613;-79
2023/09/20 06:39:59;;;;;;;2.40;1.47;;;15.50;99.50;;;;;;5088053;28;20655;-79
2023/09/20 06:42:29;;;;;;;1.50;1.40;;;15.60;99.10;;;;;;5088012;28;21175;-79
2023/09/20 06:44:57;;;;;;;1.80;1.50;;;15.70;99.20;;;;;;5087921;28;20650;-79
2023/09/20 06:47:28;;;;;;;1.90;1.70;;;15.80;98.90;;;;;;5088611;28;21195;-78
2023/09/20 06:49:57;;;;;;;1.17;1.07;;;15.70;99.10;;;;;;5089861;28;20619;-78
2023/09/20 06:52:25;;;;;;;1.57;1.37;;;15.90;99.30;;;;;;5088410;28;20636;-79
2023/09/20 06:54:53;;;;;;;1.80;1.43;;;15.90;99.10;;;;;;5088288;28;20635;-79
2023/09/20 06:57:21;;;;;;;1.50;1.40;;;16.00;98.80;;;;;;5087649;28;21012;-79
2023/09/20 06:59:51;;;;;;;1.57;1.40;;;16.10;99.10;;;;;;5089228;28;20643;-79
2023/09/20 07:02:19;;;;;;;1.63;1.43;;;16.10;99.00;;;;;;5089595;28;20661;-79
2023/09/20 07:04:48;;;;;;;2.10;1.50;;;16.20;98.50;;;;;;5086810;28;20678;-80
2023/09/20 07:07:18;;;;;;;1.27;1.07;;;16.30;98.30;;;;;;5088286;28;20624;-79
2023/09/20 07:09:45;;;;;;;3.13;1.70;;;16.40;97.80;;;;;;5087552;28;20718;-75
2023/09/20 07:12:12;;;;;;;3.40;2.07;;;16.40;98.00;;;;;;5088397;28;20626;-75
2023/09/20 07:14:41;;;;;;;1.73;1.23;;;16.50;98.20;;;;;;5088536;28;20642;-75
2023/09/20 07:17:08;;;;;;;1.70;1.50;;;16.70;97.80;;;;;;5088837;28;21077;-76
2023/09/20 07:19:37;;;;;;;1.47;1.20;;;16.70;97.10;;;;;;5086569;28;20735;-78
2023/09/20 07:22:06;;;;;;;1.97;1.80;;;16.90;97.30;;;;;;5087756;28;20653;-78
2023/09/20 07:24:35;;;;;;;1.57;1.13;;;17.00;97.10;;;;;;5087365;28;21282;-79
2023/09/20 07:27:03;;;;;;;1.30;1.20;;;17.10;97.30;;;;;;5088803;28;22477;-77
2023/09/20 07:29:34;;;;;;;1.07;0.97;;;17.20;97.80;;;;;;5087679;28;20620;-78
2023/09/20 07:32:01;;;;;;;2.13;1.30;;;17.20;97.90;;;;;;5087592;28;20621;-78
2023/09/20 07:34:30;;;;;;;1.50;1.40;;;17.30;97.60;;;;;;5087666;28;20621;-77
2023/09/20 07:36:57;;;;;;;2.30;1.43;;;17.40;97.10;;;;;;5084979;28;21282;-78
2023/09/20 07:39:25;;;;;;;1.57;1.10;;;17.40;97.10;;;;;;5088153;28;21220;-78
2023/09/20 07:41:53;;;;;;;1.03;0.90;;;17.50;96.70;;;;;;5084741;28;20756;-78
2023/09/20 07:44:24;;;;;;;2.03;1.67;;;17.50;96.60;;;;;;5084364;28;20625;-78
2023/09/20 07:46:52;;;;;;;1.60;1.43;;;17.70;96.90;;;;;;5083695;28;20620;-78
2023/09/20 07:49:20;;;;;;;1.70;1.53;;;17.80;96.70;;;;;;5084378;28;20624;-78
2023/09/20 07:51:48;;;;;;;2.00;1.53;;;17.90;96.90;;;;;;5084559;28;20774;-76
2023/09/20 07:54:17;;;;;;;4.60;1.70;;;18.10;97.00;;;;;;5083616;28;20636;-77
2023/09/20 07:56:49;;;;;;;1.40;1.30;;;18.30;96.30;;;;;;5084113;28;20767;-78
2023/09/20 07:59:16;;;;;;;2.80;1.60;;;18.40;96.60;;;;;;5083905;28;20699;-78
2023/09/20 08:01:45;;;;;;;1.30;1.20;;;18.50;95.10;;;;;;5083946;28;20755;-77
2023/09/20 08:04:17;;;;;;;1.13;1.03;;;18.60;96.10;;;;;;5084183;28;20930;-78
2023/09/20 08:06:44;;;;;;;2.37;1.70;;;18.80;95.20;;;;;;5083972;28;20632;-78
2023/09/20 08:09:12;;;;;;;2.00;1.80;;;18.80;95.40;;;;;;5083078;28;20667;-78
2023/09/20 08:11:41;;;;;;;1.10;1.10;;;18.80;95.90;;;;;;5083593;28;20621;-79
2023/09/20 08:14:11;;;;;;;2.17;1.80;;;18.90;95.60;;;;;;5084451;28;20640;-78
2023/09/20 08:16:42;;;;;;;1.70;1.60;;;19.00;95.10;;;;;;5082123;28;21085;-79
2023/09/20 08:19:20;;;;;;;1.43;1.30;;;19.30;94.30;;;;;;5081046;28;20636;-77
2023/09/20 08:21:47;;;;;;;2.27;1.57;;;19.40;94.50;;;;;;5080343;28;20713;-77
2023/09/20 09:00:21;;;;;;;1.30;1.20;;;20.30;91.10;;;;;;5079389;28;20620;-77
2023/09/20 09:02:52;;;;;;;1.83;1.73;;;20.40;91.20;;;;;;5079843;28;20634;-76
2023/09/20 09:05:21;;;;;;;5.30;1.20;;;20.60;89.60;;;;;;5078798;28;21211;-77
2023/09/20 09:07:48;;;;;;;3.63;1.30;;;20.60;90.50;;;;;;5080121;28;20976;-76
2023/09/20 09:10:15;;;;;;;1.80;1.70;;;20.70;90.90;;;;;;5078663;28;20636;-77
2023/09/20 09:12:42;;;;;;;1.63;1.17;;;20.80;90.30;;;;;;5080701;28;20620;-76
2023/09/20 09:15:11;;;;;;;1.37;1.27;;;20.90;90.50;;;;;;5078272;28;20636;-77
2023/09/20 09:17:41;;;;;;;1.43;1.03;;;21.00;89.70;;;;;;5079954;28;20627;-77
2023/09/20 09:20:10;;;;;;;1.43;1.30;;;21.20;86.50;;;;;;5080750;28;20626;-76
2023/09/20 09:22:38;;;;;;;1.90;1.33;;;21.30;84.70;;;;;;5079610;28;20733;-77
2023/09/20 09:25:11;;;;;;;2.40;1.20;;;21.40;86.00;;;;;;5074631;28;20624;-75
2023/09/20 09:27:38;;;;;;;1.47;1.37;;;21.50;85.70;;;;;;5082076;28;20634;-76
2023/09/20 09:30:07;;;;;;;3.30;1.50;;;21.60;87.20;;;;;;5081878;28;20640;-76
2023/09/20 09:32:36;;;;;;;2.43;1.60;;;21.60;83.90;;;;;;5082665;28;21253;-77
2023/09/20 09:35:05;;;;;;;1.17;1.03;;;21.70;85.40;;;;;;5081943;28;20624;-77
2023/09/20 09:37:34;;;;;;;1.57;1.40;;;21.70;83.30;;;;;;5082031;28;21160;-77
2023/09/20 09:40:02;;;;;;;1.93;1.70;;;21.80;81.60;;;;;;5082885;28;20632;-77
2023/09/20 09:42:32;;;;;;;2.57;1.30;;;21.70;84.00;;;;;;5082688;28;21197;-77
2023/09/20 09:45:01;;;;;;;1.00;1.00;;;21.60;83.10;;;;;;5081767;28;20990;-77
2023/09/20 09:47:30;;;;;;;1.80;1.70;;;21.60;82.00;;;;;;5080498;28;21095;-77
2023/09/20 09:49:59;;;;;;;1.93;1.83;;;21.60;82.80;;;;;;5080462;28;20759;-77
2023/09/20 09:52:28;;;;;;;1.43;1.33;;;21.70;80.10;;;;;;5081826;28;20797;-77
2023/09/20 09:54:57;;;;;;;2.20;1.40;;;21.80;80.80;;;;;;5082560;28;21032;-77
2023/09/20 09:57:29;;;;;;;1.57;1.43;;;21.80;81.60;;;;;;5081379;28;21409;-77
2023/09/20 09:59:56;;;;;;;1.60;1.17;;;21.90;81.30;;;;;;5082433;28;21244;-77
2023/09/20 10:02:31;;;;;;;2.70;1.70;;;22.00;79.40;;;;;;5081693;28;20652;-77
2023/09/20 10:05:02;;;;;;;2.80;1.57;;;21.80;77.20;;;;;;5080431;28;20635;-76
2023/09/20 10:07:31;;;;;;;2.90;1.20;;;21.80;78.80;;;;;;5081508;28;20637;-77
2023/09/20 10:10:08;;;;;;;1.30;1.00;;;21.70;77.00;;;;;;5081211;28;21284;-79
2023/09/20 10:12:36;;;;;;;1.33;0.93;;;21.60;76.30;;;;;;5079868;28;20986;-78
2023/09/20 10:15:09;;;;;;;1.27;1.17;;;21.80;77.00;;;;;;5078689;28;20611;-78
2023/09/20 10:17:44;;;;;;;5.00;1.73;;;21.90;76.80;;;;;;5079640;28;21262;-79
2023/09/20 10:20:36;;;;;;;1.67;1.57;;;21.90;74.50;;;;;;5082212;28;20616;-78
2023/09/20 10:23:04;;;;;;;1.67;1.57;;;21.90;75.70;;;;;;5080108;28;21685;-78
2023/09/20 10:25:34;;;;;;;1.57;1.47;;;22.00;77.20;;;;;;5078401;28;20659;-78
2023/09/20 10:28:04;;;;;;;1.30;1.17;;;22.20;75.80;;;;;;5079343;28;20857;-78
2023/09/20 10:30:56;;;;;;;2.00;1.60;;;22.30;75.20;;;;;;5079076;28;20639;-77
2023/09/20 10:33:45;;;;;;;1.43;1.30;;;22.30;75.30;;;;;;5081106;28;20643;-80
2023/09/20 10:36:23;;;;;;;2.37;1.63;;;22.40;76.30;;;;;;5080035;28;20628;-78
2023/09/20 10:39:23;;;;;;;1.87;1.53;;;22.50;76.30;;;;;;5079412;28;20705;-76
2023/09/20 10:42:00;;;;;;;1.70;1.60;;;22.70;74.30;;;;;;5080494;28;20656;-78
2023/09/20 10:44:31;;;;;;;2.00;1.77;;;22.80;73.50;;;;;;5079482;28;20699;-78
2023/09/20 10:46:59;;;;;;;3.80;1.87;;;22.80;73.90;;;;;;5080368;28;20632;-78
2023/09/20 10:49:56;;;;;;;3.93;2.13;;;22.80;71.80;;;;;;5079823;28;20631;-78
2023/09/20 10:52:56;;;;;;;1.40;1.30;;;22.80;73.10;;;;;;5049870;28;20633;-78
2023/09/20 10:55:40;;;;;;;1.87;1.70;;;22.90;72.60;;;;;;5078117;28;20713;-78
2023/09/20 10:58:08;;;;;;;3.60;1.53;;;22.90;72.20;;;;;;5080289;28;20626;-78
2023/09/20 11:00:37;;;;;;;1.57;1.47;;;23.00;70.30;;;;;;5080815;28;20615;-79
2023/09/20 11:03:09;;;;;;;1.90;1.53;;;23.10;70.90;;;;;;5078367;28;20663;-78
2023/09/20 11:05:39;;;;;;;2.50;1.93;;;23.20;69.10;;;;;;5077856;28;20713;-79
2023/09/20 11:08:08;;;;;;;1.53;1.40;;;23.10;68.60;;;;;;5078783;28;20635;-79
2023/09/20 11:10:39;;;;;;;1.33;1.23;;;23.10;70.40;;;;;;5079566;28;21511;-79
2023/09/20 11:13:08;;;;;;;1.63;1.50;;;22.90;69.90;;;;;;5082119;28;20637;-78
2023/09/20 11:15:40;;;;;;;1.60;1.50;;;23.00;72.40;;;;;;5081438;28;20639;-79
2023/09/20 11:18:07;;;;;;;1.60;1.50;;;22.90;73.70;;;;;;5084615;28;21246;-78
2023/09/20 11:20:34;;;;;;;2.20;2.07;;;22.90;72.50;;;;;;5080707;28;20999;-77
2023/09/20 11:23:02;;;;;;;1.63;1.00;;;23.00;72.70;;;;;;5083316;28;20659;-77
2023/09/20 11:25:29;;;;;;;1.57;1.30;;;23.10;73.30;;;;;;5081695;28;20751;-77
2023/09/20 11:28:13;;;;;;;2.57;1.37;;;23.10;72.80;;;;;;5083120;28;21177;-78
2023/09/20 11:30:44;;;;;;;1.93;1.53;;;23.20;74.60;;;;;;5083178;28;20638;-78
2023/09/20 11:33:26;;;;;;;2.00;1.33;;;23.20;74.00;;;;;;5083075;28;20627;-78
2023/09/20 11:35:53;;;;;;;1.70;1.50;;;23.30;74.20;;;;;;5083530;28;20627;-85
2023/09/20 11:38:22;;;;;;;1.87;1.50;;;23.20;73.50;;;;;;5085239;28;21264;-85
2023/09/20 11:40:49;;;;;;;4.23;1.50;;;23.20;74.80;;;;;;5084025;28;21298;-85
2023/09/20 11:43:20;;;;;;;2.30;1.30;;;23.20;75.90;;;;;;5084952;28;20654;-85
2023/09/20 11:45:50;;;;;;;1.80;0.90;;;23.30;72.10;;;;;;5083729;28;20625;-84
2023/09/20 11:48:16;;;;;;;3.07;1.23;;;23.40;73.50;;;;;;5084504;28;20766;-85
2023/09/20 11:50:44;;;;;;;1.20;1.10;;;23.30;73.90;;;;;;5085424;28;21316;-82
2023/09/20 11:53:14;;;;;;;1.53;1.20;;;23.30;73.10;;;;;;5082222;28;20701;-84
2023/09/20 11:55:42;;;;;;;1.10;1.00;;;23.10;72.70;;;;;;5083207;28;20644;-84
2023/09/20 11:58:09;;;;;;;1.50;1.40;;;23.00;74.20;;;;;;5083685;28;21045;-84
2023/09/20 12:00:39;;;;;;;1.27;1.17;;;23.20;74.10;;;;;;5083601;28;20655;-84
2023/09/20 12:03:08;;;;;;;1.20;1.10;;;23.20;76.70;;;;;;5082812;28;21085;-83
2023/09/20 12:05:35;;;;;;;1.97;1.43;;;23.30;74.00;;;;;;5082928;28;20643;-84
2023/09/20 12:08:06;;;;;;;1.40;0.90;;;23.40;75.20;;;;;;5084009;28;21053;-84
2023/09/20 12:10:33;;;;;;;1.30;1.20;;;23.40;75.30;;;;;;5082675;28;21163;-85
2023/09/20 12:13:00;;;;;;;1.40;1.30;;;23.50;73.00;;;;;;5083674;28;20632;-84
2023/09/20 12:15:26;;;;;;;0.90;0.90;;;23.50;72.90;;;;;;5083285;28;21090;-84
2023/09/20 12:17:56;;;;;;;1.93;0.90;;;23.50;75.70;;;;;;5084378;28;20625;-84
2023/09/20 12:20:24;;;;;;;1.80;1.20;;;23.50;71.90;;;;;;5082846;28;20623;-84
2023/09/20 12:22:51;;;;;;;1.27;1.07;;;23.70;72.10;;;;;;5081992;28;21134;-85
2023/09/20 12:25:19;;;;;;;0.90;0.90;;;23.90;70.60;;;;;;5082853;28;21286;-84
2023/09/20 12:27:46;;;;;;;1.00;1.00;;;23.90;70.50;;;;;;5082826;28;20666;-84
2023/09/20 12:30:31;;;;;;;0.97;0.97;;;23.90;71.00;;;;;;5083585;28;21313;-85
2023/09/20 12:33:00;;;;;;;0.90;0.70;;;23.90;69.90;;;;;;5079998;28;21043;-85
2023/09/20 12:35:26;;;;;;;1.33;1.23;;;23.90;70.00;;;;;;5082426;28;20637;-85
2023/09/20 12:37:54;;;;;;;1.60;1.50;;;23.90;69.80;;;;;;5082995;28;20665;-85
2023/09/20 12:40:23;;;;;;;1.90;1.10;;;24.00;68.80;;;;;;5083405;28;20622;-84
2023/09/20 12:42:50;;;;;;;5.70;1.10;;;24.10;68.80;;;;;;5083385;28;21231;-85
2023/09/20 12:45:19;;;;;;;1.97;1.07;;;24.10;69.20;;;;;;5083049;28;20634;-85
2023/09/20 12:47:46;;;;;;;1.23;0.97;;;24.20;67.80;;;;;;5081275;28;20635;-84
2023/09/20 12:50:14;;;;;;;1.37;1.20;;;24.30;67.50;;;;;;5081101;28;20630;-85
2023/09/20 12:52:42;;;;;;;0.90;0.90;;;24.30;66.90;;;;;;5083588;28;21169;-85
2023/09/20 12:55:10;;;;;;;0.70;0.70;;;24.20;66.60;;;;;;5082888;28;20628;-85
2023/09/20 12:57:38;;;;;;;1.20;1.10;;;24.20;66.40;;;;;;5083013;28;20624;-84
2023/09/20 13:00:08;;;;;;;1.17;1.10;;;24.20;67.40;;;;;;5082675;28;20673;-85
2023/09/20 13:02:35;;;;;;;1.10;1.00;;;24.30;65.10;;;;;;5082942;28;21115;-85
2023/09/20 13:05:03;;;;;;;1.17;1.07;;;24.50;62.60;;;;;;5082305;28;20852;-84
2023/09/20 13:07:31;;;;;;;1.23;0.90;;;24.40;63.10;;;;;;5082632;28;20635;-84
2023/09/20 13:09:58;;;;;;;1.03;0.90;;;24.50;62.90;;;;;;5082556;28;20666;-86
2023/09/20 13:12:25;;;;;;;1.17;0.70;;;24.50;63.90;;;;;;5081125;28;20648;-86
2023/09/20 13:14:51;;;;;;;0.70;0.70;;;24.50;64.60;;;;;;5081889;28;20641;-84
2023/09/20 13:17:20;;;;;;;1.07;0.90;;;24.60;64.00;;;;;;5081201;28;20734;-86
2023/09/20 13:19:47;;;;;;;2.43;1.30;;;24.70;63.60;;;;;;5082609;28;20620;-85
2023/09/20 13:22:17;;;;;;;1.40;1.30;;;24.70;64.30;;;;;;5082278;28;20698;-87
2023/09/20 13:24:47;;;;;;;1.03;0.93;;;24.60;65.60;;;;;;5080202;28;21742;-86
2023/09/20 13:27:15;;;;;;;3.20;1.20;;;24.60;64.00;;;;;;5082145;28;20960;-81
2023/09/20 13:29:42;;;;;;;0.77;0.77;;;24.70;61.80;;;;;;5080911;28;20674;-79
2023/09/20 13:32:09;;;;;;;2.03;1.20;;;24.70;61.50;;;;;;5079908;28;20701;-79
2023/09/20 13:34:36;;;;;;;1.23;0.90;;;24.60;62.80;;;;;;5082045;28;20615;-80